GEC8291 LYBE-EDDF
Flight info
| Callsign | GEC8291 |
|---|---|
| Flight time | 1h 39m |
| Altitude | 38000 |
| Route | TUVAR DCT LAKIK DCT OBUTI DCT NEMAL DCT SIMBA DCT AKINI T161 ASPAT/N0457F300 T161 DEBHI DEBHI1D |
| Aircraft | B77L/H-SDE1E2E3FGHIJ2J3J4J5M1RWXY/LB1D1 |
Departure
| Time | 2026-05-07 19:39 |
|---|---|
| Airport | Belgrade Nikola Tesla Airport (LYBE) |
Arrival
| Time | 2026-05-07 21:19 |
|---|---|
| Airport | Frankfurt Main Airport (EDDF) |
| Time | Latitude | Longitude | Altitude | Speed | Heading |
|---|---|---|---|---|---|
| 2026-05-07 19:23 | 44.81954 | 20.29610 | 348 ft | 0 kts | 122° |
| 2026-05-07 19:29 | 44.81959 | 20.29596 | 348 ft | 2 kts | 108° |
| 2026-05-07 19:29 | 44.81963 | 20.29576 | 348 ft | 2 kts | 94° |
| 2026-05-07 19:30 | 44.81962 | 20.29555 | 348 ft | 2 kts | 79° |
| 2026-05-07 19:30 | 44.81958 | 20.29535 | 348 ft | 2 kts | 64° |
| 2026-05-07 19:30 | 44.81950 | 20.29518 | 348 ft | 2 kts | 49° |
| 2026-05-07 19:30 | 44.81939 | 20.29503 | 348 ft | 2 kts | 33° |
| 2026-05-07 19:31 | 44.81926 | 20.29493 | 348 ft | 2 kts | 28° |
| 2026-05-07 19:31 | 44.81914 | 20.29483 | 348 ft | 2 kts | 30° |
| 2026-05-07 19:31 | 44.81908 | 20.29478 | 348 ft | 0 kts | 30° |
| 2026-05-07 19:33 | 44.81921 | 20.29489 | 348 ft | 4 kts | 30° |
| 2026-05-07 19:33 | 44.81956 | 20.29518 | 348 ft | 8 kts | 31° |
| 2026-05-07 19:33 | 44.82019 | 20.29571 | 348 ft | 12 kts | 31° |
| 2026-05-07 19:33 | 44.82070 | 20.29617 | 348 ft | 6 kts | 46° |
| 2026-05-07 19:34 | 44.82072 | 20.29682 | 348 ft | 7 kts | 107° |
| 2026-05-07 19:34 | 44.82041 | 20.29762 | 348 ft | 11 kts | 120° |
| 2026-05-07 19:34 | 44.81985 | 20.29892 | 348 ft | 17 kts | 118° |
| 2026-05-07 19:34 | 44.81927 | 20.30025 | 348 ft | 18 kts | 122° |
| 2026-05-07 19:35 | 44.81858 | 20.30176 | 348 ft | 18 kts | 123° |
| 2026-05-07 19:35 | 44.81789 | 20.30329 | 348 ft | 18 kts | 120° |
| 2026-05-07 19:35 | 44.81721 | 20.30486 | 348 ft | 18 kts | 121° |
| 2026-05-07 19:35 | 44.81652 | 20.30644 | 348 ft | 19 kts | 122° |
| 2026-05-07 19:36 | 44.81580 | 20.30804 | 348 ft | 19 kts | 121° |
| 2026-05-07 19:36 | 44.81508 | 20.30967 | 348 ft | 19 kts | 122° |
| 2026-05-07 19:36 | 44.81437 | 20.31130 | 348 ft | 19 kts | 120° |
| 2026-05-07 19:36 | 44.81361 | 20.31292 | 348 ft | 19 kts | 123° |
| 2026-05-07 19:37 | 44.81288 | 20.31459 | 348 ft | 20 kts | 121° |
| 2026-05-07 19:37 | 44.81215 | 20.31628 | 348 ft | 20 kts | 121° |
| 2026-05-07 19:37 | 44.81137 | 20.31801 | 349 ft | 23 kts | 122° |
| 2026-05-07 19:37 | 44.81044 | 20.32009 | 349 ft | 25 kts | 122° |
| 2026-05-07 19:38 | 44.80996 | 20.32174 | 349 ft | 17 kts | 85° |
| 2026-05-07 19:38 | 44.81062 | 20.32226 | 349 ft | 13 kts | 318° |
| 2026-05-07 19:38 | 44.81085 | 20.32179 | 349 ft | 1 kts | 300° |
| 2026-05-07 19:38 | 44.81233 | 20.31847 | 349 ft | 85 kts | 302° |
| 2026-05-07 19:39 | 44.81681 | 20.30797 | 367 ft | 162 kts | 297° |
| 2026-05-07 19:39 | 44.82309 | 20.29286 | 835 ft | 195 kts | 300° |
| 2026-05-07 19:39 | 44.82977 | 20.27670 | 2098 ft | 187 kts | 288° |
| 2026-05-07 19:39 | 44.83208 | 20.26033 | 2952 ft | 179 kts | 267° |
| 2026-05-07 19:40 | 44.82927 | 20.24271 | 3386 ft | 194 kts | 242° |
| 2026-05-07 19:40 | 44.82042 | 20.22761 | 3877 ft | 211 kts | 221° |
| 2026-05-07 19:40 | 44.80887 | 20.21382 | 4468 ft | 226 kts | 220° |
| 2026-05-07 19:40 | 44.79833 | 20.20139 | 5053 ft | 235 kts | 220° |
| 2026-05-07 19:41 | 44.78576 | 20.18658 | 5772 ft | 241 kts | 220° |
| 2026-05-07 19:41 | 44.77287 | 20.17142 | 5988 ft | 242 kts | 220° |
| 2026-05-07 19:41 | 44.75996 | 20.15624 | 6008 ft | 241 kts | 220° |
| 2026-05-07 19:41 | 44.74713 | 20.14116 | 6011 ft | 241 kts | 220° |
| 2026-05-07 19:42 | 44.73434 | 20.12614 | 6013 ft | 240 kts | 220° |
| 2026-05-07 19:42 | 44.72147 | 20.11104 | 6013 ft | 240 kts | 220° |
| 2026-05-07 19:42 | 44.70865 | 20.09600 | 6013 ft | 240 kts | 220° |
| 2026-05-07 19:42 | 44.69597 | 20.08114 | 6017 ft | 239 kts | 220° |
| 2026-05-07 19:43 | 44.68459 | 20.06771 | 6011 ft | 239 kts | 223° |
| 2026-05-07 19:43 | 44.67498 | 20.04874 | 5999 ft | 244 kts | 248° |
| 2026-05-07 19:43 | 44.66989 | 20.02490 | 6505 ft | 262 kts | 255° |
| 2026-05-07 19:43 | 44.66567 | 20.00031 | 7417 ft | 264 kts | 256° |
| 2026-05-07 19:44 | 44.66151 | 19.97535 | 8197 ft | 270 kts | 256° |
| 2026-05-07 19:44 | 44.65726 | 19.94990 | 9051 ft | 272 kts | 256° |
| 2026-05-07 19:44 | 44.65289 | 19.92387 | 9870 ft | 275 kts | 256° |
| 2026-05-07 19:44 | 44.65043 | 19.89748 | 10635 ft | 280 kts | 272° |
| 2026-05-07 19:45 | 44.65532 | 19.87093 | 11386 ft | 288 kts | 295° |
| 2026-05-07 19:45 | 44.66752 | 19.84854 | 12195 ft | 296 kts | 313° |
| 2026-05-07 19:45 | 44.68262 | 19.82910 | 13083 ft | 300 kts | 316° |
| 2026-05-07 19:45 | 44.69814 | 19.80996 | 13993 ft | 304 kts | 315° |
| 2026-05-07 19:46 | 44.71413 | 19.79015 | 14927 ft | 308 kts | 315° |
| 2026-05-07 19:46 | 44.73011 | 19.77023 | 15889 ft | 313 kts | 315° |
| 2026-05-07 19:46 | 44.74644 | 19.74982 | 16813 ft | 317 kts | 315° |
| 2026-05-07 19:46 | 44.76280 | 19.72933 | 17707 ft | 322 kts | 315° |
| 2026-05-07 19:47 | 44.77959 | 19.70829 | 18619 ft | 327 kts | 315° |
| 2026-05-07 19:47 | 44.79655 | 19.68702 | 19532 ft | 330 kts | 315° |
| 2026-05-07 19:47 | 44.81369 | 19.66552 | 20426 ft | 334 kts | 315° |
| 2026-05-07 19:47 | 44.83111 | 19.64363 | 21262 ft | 339 kts | 314° |
| 2026-05-07 19:48 | 44.84851 | 19.62174 | 22073 ft | 343 kts | 314° |
| 2026-05-07 19:48 | 44.86652 | 19.59908 | 22903 ft | 347 kts | 314° |
| 2026-05-07 19:48 | 44.88364 | 19.57524 | 23670 ft | 347 kts | 304° |
| 2026-05-07 19:48 | 44.89774 | 19.54808 | 24391 ft | 350 kts | 301° |
| 2026-05-07 19:49 | 44.91161 | 19.51982 | 25165 ft | 353 kts | 300° |
| 2026-05-07 19:49 | 44.92553 | 19.49130 | 25882 ft | 357 kts | 300° |
| 2026-05-07 19:49 | 44.93964 | 19.46242 | 26626 ft | 361 kts | 300° |
| 2026-05-07 19:49 | 44.95400 | 19.43303 | 27380 ft | 364 kts | 300° |
| 2026-05-07 19:50 | 44.96820 | 19.40393 | 28091 ft | 367 kts | 300° |
| 2026-05-07 19:50 | 44.98279 | 19.37401 | 28765 ft | 372 kts | 300° |
| 2026-05-07 19:50 | 44.99733 | 19.34417 | 29439 ft | 377 kts | 299° |
| 2026-05-07 19:50 | 45.01241 | 19.31320 | 30221 ft | 379 kts | 299° |
| 2026-05-07 19:51 | 45.02723 | 19.28273 | 30950 ft | 381 kts | 299° |
| 2026-05-07 19:51 | 45.04221 | 19.25188 | 31538 ft | 386 kts | 299° |
| 2026-05-07 19:51 | 45.05733 | 19.22073 | 32149 ft | 389 kts | 299° |
| 2026-05-07 19:51 | 45.07260 | 19.18923 | 32703 ft | 394 kts | 299° |
| 2026-05-07 19:52 | 45.08824 | 19.15694 | 33263 ft | 397 kts | 300° |
| 2026-05-07 19:52 | 45.10375 | 19.12488 | 33804 ft | 401 kts | 300° |
| 2026-05-07 19:52 | 45.11944 | 19.09240 | 34339 ft | 404 kts | 300° |
| 2026-05-07 19:52 | 45.13537 | 19.05953 | 34770 ft | 408 kts | 300° |
| 2026-05-07 19:53 | 45.15194 | 19.02590 | 34892 ft | 421 kts | 300° |
| 2026-05-07 19:53 | 45.16883 | 18.99163 | 34903 ft | 436 kts | 301° |
| 2026-05-07 19:53 | 45.18636 | 18.95600 | 34925 ft | 451 kts | 300° |
| 2026-05-07 19:53 | 45.20467 | 18.91876 | 35074 ft | 462 kts | 301° |
| 2026-05-07 19:54 | 45.22303 | 18.88140 | 35630 ft | 462 kts | 301° |
| 2026-05-07 19:54 | 45.24123 | 18.84435 | 36466 ft | 455 kts | 301° |
| 2026-05-07 19:54 | 45.25918 | 18.80774 | 37391 ft | 448 kts | 301° |
| 2026-05-07 19:54 | 45.27672 | 18.77187 | 37910 ft | 449 kts | 301° |
| 2026-05-07 19:55 | 45.31237 | 18.69879 | 38004 ft | 448 kts | 301° |
| 2026-05-07 19:55 | 45.34755 | 18.62651 | 37997 ft | 448 kts | 300° |
| 2026-05-07 19:56 | 45.38301 | 18.55342 | 37994 ft | 449 kts | 300° |
| 2026-05-07 19:56 | 45.41815 | 18.48085 | 38001 ft | 447 kts | 300° |
| 2026-05-07 19:57 | 45.45336 | 18.40791 | 37994 ft | 448 kts | 300° |
| 2026-05-07 19:57 | 45.48861 | 18.33471 | 38003 ft | 448 kts | 300° |
| 2026-05-07 19:58 | 45.52369 | 18.26169 | 38003 ft | 447 kts | 300° |
| 2026-05-07 19:58 | 45.55868 | 18.18864 | 38000 ft | 448 kts | 300° |
| 2026-05-07 19:59 | 45.59365 | 18.11545 | 38005 ft | 448 kts | 300° |
| 2026-05-07 19:59 | 45.62746 | 18.04122 | 38000 ft | 447 kts | 297° |
| 2026-05-07 20:00 | 45.66004 | 17.96630 | 37996 ft | 448 kts | 297° |
| 2026-05-07 20:00 | 45.69290 | 17.89081 | 37988 ft | 447 kts | 297° |
| 2026-05-07 20:01 | 45.72556 | 17.81571 | 37989 ft | 448 kts | 297° |
| 2026-05-07 20:01 | 45.75834 | 17.74021 | 37992 ft | 447 kts | 297° |
| 2026-05-07 20:02 | 45.79084 | 17.66521 | 37997 ft | 446 kts | 297° |
| 2026-05-07 20:02 | 45.82369 | 17.58920 | 37977 ft | 447 kts | 297° |
| 2026-05-07 20:03 | 45.85613 | 17.51395 | 37987 ft | 448 kts | 297° |
| 2026-05-07 20:03 | 45.88878 | 17.43803 | 37985 ft | 447 kts | 297° |
| 2026-05-07 20:04 | 45.92136 | 17.36202 | 37972 ft | 448 kts | 297° |
| 2026-05-07 20:04 | 45.95386 | 17.28605 | 37979 ft | 448 kts | 296° |
| 2026-05-07 20:05 | 45.98622 | 17.21018 | 37968 ft | 446 kts | 296° |
| 2026-05-07 20:05 | 46.01836 | 17.13460 | 37986 ft | 448 kts | 296° |
| 2026-05-07 20:06 | 46.05071 | 17.05836 | 37978 ft | 447 kts | 296° |
| 2026-05-07 20:06 | 46.08304 | 16.98193 | 37967 ft | 446 kts | 296° |
| 2026-05-07 20:07 | 46.11506 | 16.90603 | 37961 ft | 448 kts | 296° |
| 2026-05-07 20:07 | 46.14723 | 16.82955 | 37963 ft | 448 kts | 296° |
| 2026-05-07 20:08 | 46.17948 | 16.75268 | 37951 ft | 448 kts | 296° |
| 2026-05-07 20:08 | 46.21160 | 16.67593 | 37957 ft | 449 kts | 296° |
| 2026-05-07 20:09 | 46.24367 | 16.59907 | 37949 ft | 448 kts | 296° |
| 2026-05-07 20:10 | 46.29172 | 16.48351 | 37953 ft | 449 kts | 296° |
| 2026-05-07 20:10 | 46.32139 | 16.41191 | 37939 ft | 448 kts | 296° |
| 2026-05-07 20:11 | 46.35294 | 16.33556 | 37953 ft | 449 kts | 295° |
| 2026-05-07 20:11 | 46.38644 | 16.25958 | 37951 ft | 451 kts | 303° |
| 2026-05-07 20:12 | 46.42680 | 16.18998 | 37947 ft | 456 kts | 304° |
| 2026-05-07 20:12 | 46.46775 | 16.11985 | 37937 ft | 457 kts | 304° |
| 2026-05-07 20:13 | 46.50846 | 16.04977 | 37936 ft | 456 kts | 304° |
| 2026-05-07 20:13 | 46.54932 | 15.97915 | 37937 ft | 457 kts | 304° |
| 2026-05-07 20:14 | 46.58998 | 15.90866 | 37933 ft | 459 kts | 304° |
| 2026-05-07 20:14 | 46.63071 | 15.83783 | 37927 ft | 458 kts | 304° |
| 2026-05-07 20:15 | 46.67136 | 15.76695 | 37907 ft | 458 kts | 304° |
| 2026-05-07 20:15 | 46.71222 | 15.69551 | 37935 ft | 460 kts | 304° |
| 2026-05-07 20:16 | 46.75296 | 15.62409 | 37934 ft | 461 kts | 304° |
| 2026-05-07 20:16 | 46.79367 | 15.55253 | 37910 ft | 460 kts | 304° |
| 2026-05-07 20:17 | 46.83464 | 15.48033 | 37908 ft | 462 kts | 304° |
| 2026-05-07 20:17 | 46.87530 | 15.40849 | 37914 ft | 462 kts | 304° |
| 2026-05-07 20:18 | 46.91604 | 15.33632 | 37915 ft | 463 kts | 304° |
| 2026-05-07 20:18 | 46.95705 | 15.26347 | 37913 ft | 463 kts | 304° |
| 2026-05-07 20:19 | 46.99770 | 15.19108 | 37919 ft | 464 kts | 304° |
| 2026-05-07 20:19 | 47.03881 | 15.11765 | 37932 ft | 466 kts | 304° |
| 2026-05-07 20:20 | 47.07970 | 15.04444 | 37940 ft | 465 kts | 304° |
| 2026-05-07 20:20 | 47.12047 | 14.97125 | 38002 ft | 465 kts | 304° |
| 2026-05-07 20:21 | 47.16131 | 14.89772 | 37929 ft | 466 kts | 304° |
| 2026-05-07 20:21 | 47.20193 | 14.82441 | 37960 ft | 464 kts | 304° |
| 2026-05-07 20:22 | 47.24251 | 14.75097 | 37945 ft | 464 kts | 304° |
| 2026-05-07 20:22 | 47.28316 | 14.67719 | 37952 ft | 465 kts | 304° |
| 2026-05-07 20:23 | 47.32364 | 14.60355 | 37951 ft | 466 kts | 304° |
| 2026-05-07 20:23 | 47.36434 | 14.52927 | 37959 ft | 465 kts | 304° |
| 2026-05-07 20:24 | 47.40464 | 14.45555 | 37962 ft | 465 kts | 305° |
| 2026-05-07 20:24 | 47.44508 | 14.38136 | 37966 ft | 463 kts | 304° |
| 2026-05-07 20:25 | 47.48542 | 14.30714 | 37971 ft | 464 kts | 304° |
| 2026-05-07 20:25 | 47.52567 | 14.23290 | 37971 ft | 465 kts | 304° |
| 2026-05-07 20:26 | 47.56576 | 14.15876 | 37970 ft | 464 kts | 304° |
| 2026-05-07 20:26 | 47.60590 | 14.08432 | 37973 ft | 464 kts | 304° |
| 2026-05-07 20:27 | 47.64597 | 14.00979 | 37975 ft | 464 kts | 304° |
| 2026-05-07 20:27 | 47.68597 | 13.93520 | 37979 ft | 464 kts | 304° |
| 2026-05-07 20:28 | 47.72621 | 13.85997 | 37976 ft | 463 kts | 304° |
| 2026-05-07 20:28 | 47.76610 | 13.78516 | 37976 ft | 465 kts | 304° |
| 2026-05-07 20:29 | 47.80590 | 13.71032 | 37982 ft | 465 kts | 304° |
| 2026-05-07 20:29 | 47.84607 | 13.63460 | 37980 ft | 463 kts | 304° |
| 2026-05-07 20:30 | 47.88563 | 13.55978 | 37987 ft | 465 kts | 304° |
| 2026-05-07 20:30 | 47.92558 | 13.48423 | 37985 ft | 464 kts | 307° |
| 2026-05-07 20:31 | 47.97009 | 13.41555 | 37993 ft | 465 kts | 311° |
| 2026-05-07 20:31 | 48.01575 | 13.34668 | 37993 ft | 469 kts | 310° |
| 2026-05-07 20:32 | 48.06128 | 13.27718 | 37999 ft | 468 kts | 310° |
| 2026-05-07 20:32 | 48.10638 | 13.20781 | 37997 ft | 468 kts | 310° |
| 2026-05-07 20:33 | 48.15142 | 13.13816 | 37995 ft | 468 kts | 310° |
| 2026-05-07 20:33 | 48.19651 | 13.06814 | 37997 ft | 469 kts | 310° |
| 2026-05-07 20:34 | 48.24155 | 12.99759 | 37996 ft | 467 kts | 309° |
| 2026-05-07 20:34 | 48.28451 | 12.92473 | 37999 ft | 468 kts | 308° |
| 2026-05-07 20:35 | 48.32755 | 12.85137 | 37997 ft | 468 kts | 308° |
| 2026-05-07 20:35 | 48.37051 | 12.77812 | 37998 ft | 468 kts | 308° |
| 2026-05-07 20:36 | 48.41350 | 12.70471 | 37998 ft | 468 kts | 308° |
| 2026-05-07 20:36 | 48.45630 | 12.63147 | 37997 ft | 469 kts | 309° |
| 2026-05-07 20:37 | 48.49911 | 12.55803 | 37994 ft | 468 kts | 309° |
| 2026-05-07 20:37 | 48.54205 | 12.48418 | 37993 ft | 469 kts | 309° |
| 2026-05-07 20:38 | 48.58488 | 12.41035 | 37993 ft | 468 kts | 309° |
| 2026-05-07 20:38 | 48.62786 | 12.33602 | 37993 ft | 469 kts | 308° |
| 2026-05-07 20:39 | 48.67048 | 12.26212 | 37993 ft | 469 kts | 308° |
| 2026-05-07 20:39 | 48.71294 | 12.18798 | 37987 ft | 468 kts | 306° |
| 2026-05-07 20:40 | 48.74560 | 12.10432 | 37989 ft | 463 kts | 289° |
| 2026-05-07 20:40 | 48.76144 | 12.01058 | 37994 ft | 460 kts | 278° |
| 2026-05-07 20:41 | 48.77202 | 11.91547 | 37996 ft | 460 kts | 278° |
| 2026-05-07 20:41 | 48.78229 | 11.82075 | 37999 ft | 459 kts | 278° |
| 2026-05-07 20:42 | 48.79250 | 11.72523 | 38005 ft | 460 kts | 278° |
| 2026-05-07 20:42 | 48.80254 | 11.63017 | 38010 ft | 459 kts | 278° |
| 2026-05-07 20:43 | 48.81248 | 11.53468 | 38010 ft | 459 kts | 278° |
| 2026-05-07 20:43 | 48.82236 | 11.43890 | 38010 ft | 459 kts | 278° |
| 2026-05-07 20:44 | 48.83210 | 11.34352 | 38018 ft | 460 kts | 277° |
| 2026-05-07 20:44 | 48.84914 | 11.25021 | 38020 ft | 463 kts | 292° |
| 2026-05-07 20:44 | 48.86403 | 11.20725 | 37830 ft | 459 kts | 300° |
| 2026-05-07 20:45 | 48.88245 | 11.16829 | 37302 ft | 461 kts | 308° |
| 2026-05-07 20:45 | 48.90478 | 11.13279 | 36581 ft | 469 kts | 315° |
| 2026-05-07 20:45 | 48.92892 | 11.09957 | 35851 ft | 475 kts | 316° |
| 2026-05-07 20:45 | 48.95333 | 11.06618 | 35126 ft | 479 kts | 316° |
| 2026-05-07 20:46 | 48.97812 | 11.03204 | 34405 ft | 483 kts | 316° |
| 2026-05-07 20:46 | 49.00267 | 10.99798 | 33656 ft | 488 kts | 316° |
| 2026-05-07 20:46 | 49.02777 | 10.96301 | 32836 ft | 491 kts | 316° |
| 2026-05-07 20:46 | 49.05280 | 10.92802 | 32053 ft | 489 kts | 316° |
| 2026-05-07 20:47 | 49.07744 | 10.89348 | 31637 ft | 478 kts | 316° |
| 2026-05-07 20:47 | 49.10179 | 10.85925 | 31375 ft | 466 kts | 316° |
| 2026-05-07 20:47 | 49.12510 | 10.82639 | 31136 ft | 455 kts | 316° |
| 2026-05-07 20:47 | 49.14807 | 10.79393 | 30642 ft | 448 kts | 316° |
| 2026-05-07 20:48 | 49.17061 | 10.76203 | 29965 ft | 446 kts | 316° |
| 2026-05-07 20:48 | 49.19329 | 10.72987 | 29252 ft | 444 kts | 316° |
| 2026-05-07 20:48 | 49.21515 | 10.69744 | 28618 ft | 440 kts | 314° |
| 2026-05-07 20:48 | 49.23631 | 10.66391 | 28012 ft | 435 kts | 314° |
| 2026-05-07 20:49 | 49.25702 | 10.63097 | 27367 ft | 432 kts | 314° |
| 2026-05-07 20:49 | 49.27767 | 10.59818 | 26746 ft | 428 kts | 314° |
| 2026-05-07 20:49 | 49.29847 | 10.56517 | 26100 ft | 424 kts | 314° |
| 2026-05-07 20:49 | 49.31616 | 10.53710 | 25539 ft | 422 kts | 314° |
| 2026-05-07 20:50 | 49.33620 | 10.50529 | 24874 ft | 419 kts | 314° |
| 2026-05-07 20:50 | 49.35629 | 10.47290 | 24121 ft | 417 kts | 311° |
| 2026-05-07 20:50 | 49.37367 | 10.43796 | 23638 ft | 409 kts | 306° |
| 2026-05-07 20:50 | 49.38988 | 10.40259 | 23437 ft | 409 kts | 306° |
| 2026-05-07 20:51 | 49.40620 | 10.36685 | 23200 ft | 411 kts | 305° |
| 2026-05-07 20:51 | 49.42262 | 10.33085 | 22923 ft | 409 kts | 304° |
| 2026-05-07 20:51 | 49.43885 | 10.29521 | 22646 ft | 408 kts | 305° |
| 2026-05-07 20:51 | 49.45480 | 10.26014 | 22371 ft | 405 kts | 304° |
| 2026-05-07 20:52 | 49.47104 | 10.22441 | 22085 ft | 404 kts | 305° |
| 2026-05-07 20:52 | 49.48695 | 10.18934 | 21814 ft | 404 kts | 305° |
| 2026-05-07 20:52 | 49.50306 | 10.15378 | 21537 ft | 403 kts | 305° |
| 2026-05-07 20:52 | 49.51899 | 10.11858 | 21257 ft | 401 kts | 305° |
| 2026-05-07 20:53 | 49.53487 | 10.08345 | 20988 ft | 400 kts | 305° |
| 2026-05-07 20:53 | 49.55062 | 10.04857 | 20691 ft | 400 kts | 305° |
| 2026-05-07 20:53 | 49.56639 | 10.01358 | 20385 ft | 396 kts | 305° |
| 2026-05-07 20:53 | 49.58186 | 9.97921 | 20099 ft | 396 kts | 305° |
| 2026-05-07 20:54 | 49.59758 | 9.94424 | 19822 ft | 396 kts | 305° |
| 2026-05-07 20:54 | 49.61308 | 9.90971 | 19540 ft | 394 kts | 305° |
| 2026-05-07 20:54 | 49.62859 | 9.87512 | 19269 ft | 391 kts | 305° |
| 2026-05-07 20:54 | 49.64394 | 9.84084 | 19004 ft | 391 kts | 305° |
| 2026-05-07 20:55 | 49.65945 | 9.80615 | 18731 ft | 390 kts | 305° |
| 2026-05-07 20:55 | 49.67486 | 9.77164 | 18446 ft | 389 kts | 305° |
| 2026-05-07 20:55 | 49.69003 | 9.73762 | 18170 ft | 387 kts | 305° |
| 2026-05-07 20:55 | 49.70512 | 9.70374 | 17914 ft | 385 kts | 305° |
| 2026-05-07 20:56 | 49.72023 | 9.66979 | 17637 ft | 384 kts | 305° |
| 2026-05-07 20:56 | 49.73537 | 9.63570 | 17365 ft | 381 kts | 305° |
| 2026-05-07 20:56 | 49.75033 | 9.60199 | 17101 ft | 380 kts | 305° |
| 2026-05-07 20:56 | 49.76523 | 9.56836 | 16829 ft | 379 kts | 304° |
| 2026-05-07 20:57 | 49.77987 | 9.53526 | 16583 ft | 378 kts | 305° |
| 2026-05-07 20:57 | 49.79460 | 9.50193 | 16307 ft | 376 kts | 305° |
| 2026-05-07 20:57 | 49.80931 | 9.46859 | 16041 ft | 374 kts | 305° |
| 2026-05-07 20:57 | 49.82398 | 9.43533 | 15790 ft | 373 kts | 305° |
| 2026-05-07 20:58 | 49.83856 | 9.40220 | 15522 ft | 372 kts | 305° |
| 2026-05-07 20:58 | 49.85282 | 9.36942 | 15255 ft | 370 kts | 302° |
| 2026-05-07 20:58 | 49.86425 | 9.33402 | 15002 ft | 369 kts | 291° |
| 2026-05-07 20:58 | 49.87219 | 9.29621 | 14750 ft | 369 kts | 287° |
| 2026-05-07 20:59 | 49.87948 | 9.25841 | 14491 ft | 367 kts | 287° |
| 2026-05-07 20:59 | 49.88675 | 9.22044 | 14239 ft | 365 kts | 287° |
| 2026-05-07 20:59 | 49.89395 | 9.18273 | 13942 ft | 365 kts | 287° |
| 2026-05-07 20:59 | 49.90110 | 9.14519 | 13666 ft | 362 kts | 287° |
| 2026-05-07 21:00 | 49.90814 | 9.10819 | 13394 ft | 361 kts | 287° |
| 2026-05-07 21:00 | 49.91516 | 9.07119 | 13144 ft | 360 kts | 287° |
| 2026-05-07 21:00 | 49.92316 | 9.03441 | 12892 ft | 357 kts | 294° |
| 2026-05-07 21:00 | 49.93400 | 8.99976 | 12732 ft | 356 kts | 297° |
| 2026-05-07 21:01 | 49.94515 | 8.96542 | 12602 ft | 357 kts | 297° |
| 2026-05-07 21:01 | 49.95623 | 8.93129 | 12452 ft | 356 kts | 297° |
| 2026-05-07 21:01 | 49.96739 | 8.89682 | 12304 ft | 355 kts | 297° |
| 2026-05-07 21:01 | 49.97833 | 8.86296 | 12132 ft | 354 kts | 297° |
| 2026-05-07 21:02 | 49.98930 | 8.82892 | 11958 ft | 353 kts | 297° |
| 2026-05-07 21:02 | 50.00031 | 8.79473 | 11817 ft | 353 kts | 297° |
| 2026-05-07 21:02 | 50.01131 | 8.76051 | 11662 ft | 352 kts | 297° |
| 2026-05-07 21:02 | 50.02223 | 8.72650 | 11505 ft | 352 kts | 297° |
| 2026-05-07 21:03 | 50.03295 | 8.69305 | 11344 ft | 351 kts | 297° |
| 2026-05-07 21:03 | 50.04393 | 8.65877 | 11205 ft | 351 kts | 297° |
| 2026-05-07 21:03 | 50.05464 | 8.62525 | 11058 ft | 349 kts | 297° |
| 2026-05-07 21:03 | 50.06548 | 8.59129 | 10904 ft | 349 kts | 297° |
| 2026-05-07 21:04 | 50.07625 | 8.55751 | 10752 ft | 348 kts | 297° |
| 2026-05-07 21:04 | 50.08686 | 8.52418 | 10594 ft | 347 kts | 297° |
| 2026-05-07 21:04 | 50.09729 | 8.49029 | 10440 ft | 347 kts | 292° |
| 2026-05-07 21:04 | 50.10318 | 8.45534 | 10294 ft | 347 kts | 278° |
| 2026-05-07 21:05 | 50.10324 | 8.41828 | 10142 ft | 342 kts | 264° |
| 2026-05-07 21:05 | 50.09764 | 8.38338 | 9993 ft | 329 kts | 253° |
| 2026-05-07 21:05 | 50.09016 | 8.35017 | 9826 ft | 316 kts | 252° |
| 2026-05-07 21:05 | 50.08287 | 8.31907 | 9689 ft | 300 kts | 251° |
| 2026-05-07 21:06 | 50.07647 | 8.29239 | 9576 ft | 287 kts | 250° |
| 2026-05-07 21:06 | 50.07399 | 8.28207 | 9531 ft | 283 kts | 250° |
| 2026-05-07 21:06 | 50.06295 | 8.23654 | 9314 ft | 271 kts | 250° |
| 2026-05-07 21:07 | 50.05371 | 8.19858 | 9174 ft | 271 kts | 250° |
| 2026-05-07 21:07 | 50.04303 | 8.15480 | 8946 ft | 268 kts | 250° |
| 2026-05-07 21:07 | 50.03644 | 8.12781 | 8825 ft | 267 kts | 250° |
| 2026-05-07 21:07 | 50.02984 | 8.10083 | 8704 ft | 267 kts | 250° |
| 2026-05-07 21:08 | 50.02327 | 8.07391 | 8568 ft | 266 kts | 250° |
| 2026-05-07 21:08 | 50.01674 | 8.04710 | 8446 ft | 266 kts | 250° |
| 2026-05-07 21:08 | 50.01026 | 8.02061 | 8318 ft | 265 kts | 250° |
| 2026-05-07 21:08 | 50.00368 | 7.99368 | 8196 ft | 264 kts | 250° |
| 2026-05-07 21:09 | 49.99712 | 7.96689 | 8088 ft | 265 kts | 250° |
| 2026-05-07 21:09 | 49.99051 | 7.94062 | 7947 ft | 265 kts | 246° |
| 2026-05-07 21:09 | 49.97926 | 7.91783 | 7587 ft | 268 kts | 219° |
| 2026-05-07 21:09 | 49.96301 | 7.90465 | 7240 ft | 268 kts | 202° |
| 2026-05-07 21:10 | 49.94476 | 7.89899 | 6850 ft | 269 kts | 178° |
| 2026-05-07 21:10 | 49.92694 | 7.90688 | 6502 ft | 267 kts | 148° |
| 2026-05-07 21:10 | 49.91431 | 7.92612 | 6395 ft | 253 kts | 118° |
| 2026-05-07 21:10 | 49.90933 | 7.95097 | 6341 ft | 235 kts | 90° |
| 2026-05-07 21:11 | 49.91156 | 7.97509 | 6284 ft | 221 kts | 72° |
| 2026-05-07 21:11 | 49.91627 | 7.99790 | 6220 ft | 220 kts | 69° |
| 2026-05-07 21:11 | 49.92657 | 8.04086 | 6057 ft | 205 kts | 67° |
| 2026-05-07 21:12 | 49.93144 | 8.06074 | 5967 ft | 193 kts | 67° |
| 2026-05-07 21:12 | 49.93617 | 8.08006 | 5844 ft | 191 kts | 67° |
| 2026-05-07 21:12 | 49.94089 | 8.09935 | 5554 ft | 193 kts | 67° |
| 2026-05-07 21:12 | 49.94569 | 8.11903 | 5272 ft | 195 kts | 67° |
| 2026-05-07 21:13 | 49.95045 | 8.13859 | 5008 ft | 195 kts | 67° |
| 2026-05-07 21:13 | 49.95517 | 8.15827 | 4748 ft | 195 kts | 68° |
| 2026-05-07 21:13 | 49.95979 | 8.17784 | 4485 ft | 194 kts | 67° |
| 2026-05-07 21:13 | 49.96453 | 8.19743 | 4226 ft | 189 kts | 67° |
| 2026-05-07 21:14 | 49.96914 | 8.21625 | 4001 ft | 186 kts | 66° |
| 2026-05-07 21:14 | 49.97366 | 8.23472 | 3741 ft | 182 kts | 66° |
| 2026-05-07 21:14 | 49.97807 | 8.25277 | 3519 ft | 177 kts | 66° |
| 2026-05-07 21:14 | 49.98245 | 8.27077 | 3281 ft | 176 kts | 66° |
| 2026-05-07 21:15 | 49.98673 | 8.28840 | 3046 ft | 175 kts | 67° |
| 2026-05-07 21:15 | 49.99099 | 8.30598 | 2816 ft | 175 kts | 67° |
| 2026-05-07 21:15 | 49.99521 | 8.32345 | 2582 ft | 174 kts | 67° |
| 2026-05-07 21:15 | 49.99945 | 8.34098 | 2352 ft | 172 kts | 67° |
| 2026-05-07 21:16 | 50.00359 | 8.35815 | 2119 ft | 170 kts | 67° |
| 2026-05-07 21:16 | 50.00766 | 8.37499 | 1893 ft | 159 kts | 68° |
| 2026-05-07 21:16 | 50.01146 | 8.39073 | 1699 ft | 155 kts | 68° |
| 2026-05-07 21:16 | 50.01519 | 8.40623 | 1496 ft | 150 kts | 68° |
| 2026-05-07 21:17 | 50.01881 | 8.42126 | 1300 ft | 149 kts | 68° |
| 2026-05-07 21:17 | 50.02241 | 8.43632 | 1108 ft | 148 kts | 67° |
| 2026-05-07 21:17 | 50.02599 | 8.45105 | 948 ft | 145 kts | 68° |
| 2026-05-07 21:17 | 50.02966 | 8.46599 | 800 ft | 147 kts | 67° |
| 2026-05-07 21:18 | 50.03355 | 8.48046 | 619 ft | 148 kts | 59° |
| 2026-05-07 21:18 | 50.03701 | 8.49514 | 427 ft | 143 kts | 69° |
| 2026-05-07 21:18 | 50.04009 | 8.50951 | 363 ft | 131 kts | 67° |
| 2026-05-07 21:18 | 50.04266 | 8.52027 | 365 ft | 76 kts | 69° |
| 2026-05-07 21:19 | 50.04388 | 8.52548 | 371 ft | 40 kts | 75° |
| 2026-05-07 21:19 | 50.04391 | 8.52844 | 366 ft | 23 kts | 98° |
| 2026-05-07 21:19 | 50.04388 | 8.52875 | 365 ft | 0 kts | 100° |
| 2026-05-07 21:20 | 50.04386 | 8.52882 | 365 ft | 0 kts | 100° |
| 2026-05-07 21:20 | 50.04383 | 8.52916 | 363 ft | 6 kts | 100° |
| 2026-05-07 21:20 | 50.04370 | 8.53026 | 360 ft | 12 kts | 98° |
| 2026-05-07 21:21 | 50.04356 | 8.53176 | 357 ft | 15 kts | 97° |
| 2026-05-07 21:21 | 50.04362 | 8.53336 | 357 ft | 15 kts | 74° |
| 2026-05-07 21:21 | 50.04396 | 8.53489 | 357 ft | 14 kts | 78° |
| 2026-05-07 21:21 | 50.04408 | 8.53633 | 358 ft | 13 kts | 83° |
| 2026-05-07 21:22 | 50.04419 | 8.53785 | 358 ft | 13 kts | 85° |
| 2026-05-07 21:22 | 50.04426 | 8.53924 | 360 ft | 12 kts | 85° |
| 2026-05-07 21:22 | 50.04434 | 8.54062 | 360 ft | 13 kts | 84° |
| 2026-05-07 21:22 | 50.04446 | 8.54224 | 360 ft | 16 kts | 83° |
| 2026-05-07 21:23 | 50.04456 | 8.54380 | 360 ft | 12 kts | 84° |
| 2026-05-07 21:23 | 50.04451 | 8.54517 | 359 ft | 13 kts | 100° |
| 2026-05-07 21:23 | 50.04414 | 8.54646 | 358 ft | 13 kts | 126° |
| 2026-05-07 21:23 | 50.04346 | 8.54746 | 357 ft | 14 kts | 145° |
| 2026-05-07 21:24 | 50.04256 | 8.54810 | 357 ft | 14 kts | 158° |
| 2026-05-07 21:24 | 50.04166 | 8.54862 | 357 ft | 13 kts | 159° |
| 2026-05-07 21:24 | 50.04077 | 8.54913 | 355 ft | 12 kts | 160° |
| 2026-05-07 21:24 | 50.03996 | 8.54904 | 353 ft | 12 kts | 221° |
| 2026-05-07 21:25 | 50.03957 | 8.54783 | 352 ft | 13 kts | 253° |
| 2026-05-07 21:25 | 50.03994 | 8.54672 | 350 ft | 6 kts | 331° |
| 2026-05-07 21:25 | 50.04031 | 8.54669 | 351 ft | 4 kts | 30° |
| 2026-05-07 21:25 | 50.04044 | 8.54706 | 352 ft | 3 kts | 73° |
| 2026-05-07 21:26 | 50.04055 | 8.54755 | 353 ft | 0 kts | 67° |